sensor_id;sensor_type;location;lat;lon;timestamp;temperature;humidity
16827;DHT22;8530;49.540;8.576;2023-02-15T00:01:55;2.90;99.90
16827;DHT22;8530;49.540;8.576;2023-02-15T00:04:24;2.90;99.90
16827;DHT22;8530;49.540;8.576;2023-02-15T00:07:13;2.90;99.90
16827;DHT22;8530;49.540;8.576;2023-02-15T00:09:40;2.90;99.90
16827;DHT22;8530;49.540;8.576;2023-02-15T00:12:06;2.90;99.90
16827;DHT22;8530;49.540;8.576;2023-02-15T00:14:33;2.80;99.90
16827;DHT22;8530;49.540;8.576;2023-02-15T00:17:00;2.80;99.90
16827;DHT22;8530;49.540;8.576;2023-02-15T00:19:26;2.80;99.90
16827;DHT22;8530;49.540;8.576;2023-02-15T00:21:53;2.70;99.90
16827;DHT22;8530;49.540;8.576;2023-02-15T00:24:22;2.70;99.90
16827;DHT22;8530;49.540;8.576;2023-02-15T00:26:49;2.70;99.90
16827;DHT22;8530;49.540;8.576;2023-02-15T00:29:17;2.70;99.90
16827;DHT22;8530;49.540;8.576;2023-02-15T00:31:44;2.60;99.90
16827;DHT22;8530;49.540;8.576;2023-02-15T00:34:13;2.60;99.90
16827;DHT22;8530;49.540;8.576;2023-02-15T00:36:40;2.60;99.90
16827;DHT22;8530;49.540;8.576;2023-02-15T00:39:08;2.60;99.90
16827;DHT22;8530;49.540;8.576;2023-02-15T00:41:36;2.60;99.90
16827;DHT22;8530;49.540;8.576;2023-02-15T00:44:04;2.60;99.90
16827;DHT22;8530;49.540;8.576;2023-02-15T00:46:30;2.50;99.90
16827;DHT22;8530;49.540;8.576;2023-02-15T00:48:57;2.50;99.90
16827;DHT22;8530;49.540;8.576;2023-02-15T00:51:25;2.50;99.90
16827;DHT22;8530;49.540;8.576;2023-02-15T00:53:51;2.50;99.90
16827;DHT22;8530;49.540;8.576;2023-02-15T00:56:18;2.50;99.90
16827;DHT22;8530;49.540;8.576;2023-02-15T00:58:46;2.50;99.90
16827;DHT22;8530;49.540;8.576;2023-02-15T01:01:14;2.50;99.90
16827;DHT22;8530;49.540;8.576;2023-02-15T01:03:42;2.50;99.90
16827;DHT22;8530;49.540;8.576;2023-02-15T01:06:09;2.50;99.90
16827;DHT22;8530;49.540;8.576;2023-02-15T01:08:36;2.60;99.90
16827;DHT22;8530;49.540;8.576;2023-02-15T01:11:04;2.60;99.90
16827;DHT22;8530;49.540;8.576;2023-02-15T01:13:31;2.60;99.90
16827;DHT22;8530;49.540;8.576;2023-02-15T01:15:59;2.70;99.90
16827;DHT22;8530;49.540;8.576;2023-02-15T01:18:26;2.70;99.90
16827;DHT22;8530;49.540;8.576;2023-02-15T01:20:53;2.70;99.90
16827;DHT22;8530;49.540;8.576;2023-02-15T01:23:20;2.70;99.90
16827;DHT22;8530;49.540;8.576;2023-02-15T01:25:47;2.80;99.90
16827;DHT22;8530;49.540;8.576;2023-02-15T01:28:14;2.80;99.90
16827;DHT22;8530;49.540;8.576;2023-02-15T01:30:40;2.80;99.90
16827;DHT22;8530;49.540;8.576;2023-02-15T01:33:10;2.70;99.90
16827;DHT22;8530;49.540;8.576;2023-02-15T01:35:43;2.70;99.90
16827;DHT22;8530;49.540;8.576;2023-02-15T01:38:09;2.70;99.90
16827;DHT22;8530;49.540;8.576;2023-02-15T01:40:36;2.70;99.90
16827;DHT22;8530;49.540;8.576;2023-02-15T01:43:09;2.70;99.90
16827;DHT22;8530;49.540;8.576;2023-02-15T01:45:37;2.70;99.90
16827;DHT22;8530;49.540;8.576;2023-02-15T01:48:06;2.60;99.90
16827;DHT22;8530;49.540;8.576;2023-02-15T01:50:42;2.60;99.90
16827;DHT22;8530;49.540;8.576;2023-02-15T01:53:13;2.60;99.90
16827;DHT22;8530;49.540;8.576;2023-02-15T01:55:47;2.60;99.90
16827;DHT22;8530;49.540;8.576;2023-02-15T01:58:14;2.60;99.90
16827;DHT22;8530;49.540;8.576;2023-02-15T02:00:41;2.60;99.90
16827;DHT22;8530;49.540;8.576;2023-02-15T02:03:08;2.60;99.90
16827;DHT22;8530;49.540;8.576;2023-02-15T02:05:35;2.60;99.90
16827;DHT22;8530;49.540;8.576;2023-02-15T02:08:03;2.60;99.90
16827;DHT22;8530;49.540;8.576;2023-02-15T02:10:30;2.70;99.90
16827;DHT22;8530;49.540;8.576;2023-02-15T02:12:59;2.70;99.90
16827;DHT22;8530;49.540;8.576;2023-02-15T02:15:33;2.70;99.90
16827;DHT22;8530;49.540;8.576;2023-02-15T02:18:12;2.70;99.90
16827;DHT22;8530;49.540;8.576;2023-02-15T02:24:29;2.60;99.90
16827;DHT22;8530;49.540;8.576;2023-02-15T02:27:26;2.60;99.90
16827;DHT22;8530;49.540;8.576;2023-02-15T02:30:34;2.60;99.90
16827;DHT22;8530;49.540;8.576;2023-02-15T02:33:18;2.60;99.90
16827;DHT22;8530;49.540;8.576;2023-02-15T02:35:56;2.60;99.90
16827;DHT22;8530;49.540;8.576;2023-02-15T02:38:28;2.50;99.90
16827;DHT22;8530;49.540;8.576;2023-02-15T02:41:05;2.50;99.90
16827;DHT22;8530;49.540;8.576;2023-02-15T02:43:36;2.40;99.90
16827;DHT22;8530;49.540;8.576;2023-02-15T02:46:09;2.40;99.90
16827;DHT22;8530;49.540;8.576;2023-02-15T02:48:39;2.40;99.90
16827;DHT22;8530;49.540;8.576;2023-02-15T02:51:06;2.40;99.90
16827;DHT22;8530;49.540;8.576;2023-02-15T02:53:33;2.40;99.90
16827;DHT22;8530;49.540;8.576;2023-02-15T02:56:06;2.40;99.90
16827;DHT22;8530;49.540;8.576;2023-02-15T02:58:40;2.40;99.90
16827;DHT22;8530;49.540;8.576;2023-02-15T03:01:13;2.40;99.90
16827;DHT22;8530;49.540;8.576;2023-02-15T03:03:44;2.30;99.90
16827;DHT22;8530;49.540;8.576;2023-02-15T03:06:15;2.30;99.90
16827;DHT22;8530;49.540;8.576;2023-02-15T03:08:47;2.30;99.90
16827;DHT22;8530;49.540;8.576;2023-02-15T03:11:15;2.30;99.90
16827;DHT22;8530;49.540;8.576;2023-02-15T03:13:43;2.30;99.90
16827;DHT22;8530;49.540;8.576;2023-02-15T03:16:12;2.30;99.90
16827;DHT22;8530;49.540;8.576;2023-02-15T03:18:58;2.30;99.90
16827;DHT22;8530;49.540;8.576;2023-02-15T03:21:31;2.30;99.90
16827;DHT22;8530;49.540;8.576;2023-02-15T03:24:03;2.30;99.90
16827;DHT22;8530;49.540;8.576;2023-02-15T03:26:33;2.30;99.90
16827;DHT22;8530;49.540;8.576;2023-02-15T03:29:02;2.30;99.90
16827;DHT22;8530;49.540;8.576;2023-02-15T03:31:32;2.30;99.90
16827;DHT22;8530;49.540;8.576;2023-02-15T03:34:04;2.30;99.90
16827;DHT22;8530;49.540;8.576;2023-02-15T03:36:38;2.30;99.90
16827;DHT22;8530;49.540;8.576;2023-02-15T03:39:13;2.30;99.90
16827;DHT22;8530;49.540;8.576;2023-02-15T03:41:48;2.30;99.90
16827;DHT22;8530;49.540;8.576;2023-02-15T03:44:19;2.30;99.90
16827;DHT22;8530;49.540;8.576;2023-02-15T03:46:50;2.30;99.90
16827;DHT22;8530;49.540;8.576;2023-02-15T03:49:24;2.30;99.90
16827;DHT22;8530;49.540;8.576;2023-02-15T03:51:54;2.30;99.90
16827;DHT22;8530;49.540;8.576;2023-02-15T03:54:25;2.30;99.90
16827;DHT22;8530;49.540;8.576;2023-02-15T03:57:14;2.30;99.90
16827;DHT22;8530;49.540;8.576;2023-02-15T04:00:00;2.30;99.90
16827;DHT22;8530;49.540;8.576;2023-02-15T04:02:57;2.30;99.90
16827;DHT22;8530;49.540;8.576;2023-02-15T04:05:28;2.30;99.90
16827;DHT22;8530;49.540;8.576;2023-02-15T04:07:55;2.30;99.90
16827;DHT22;8530;49.540;8.576;2023-02-15T04:10:21;2.30;99.90
16827;DHT22;8530;49.540;8.576;2023-02-15T04:13:05;2.30;99.90
16827;DHT22;8530;49.540;8.576;2023-02-15T04:15:32;2.30;99.90
16827;DHT22;8530;49.540;8.576;2023-02-15T04:18:16;2.30;99.90
16827;DHT22;8530;49.540;8.576;2023-02-15T04:20:45;2.30;99.90
16827;DHT22;8530;49.540;8.576;2023-02-15T04:23:29;2.30;99.90
16827;DHT22;8530;49.540;8.576;2023-02-15T04:26:13;2.30;99.90
16827;DHT22;8530;49.540;8.576;2023-02-15T04:28:40;2.30;99.90
16827;DHT22;8530;49.540;8.576;2023-02-15T04:31:07;2.30;99.90
16827;DHT22;8530;49.540;8.576;2023-02-15T04:33:34;2.30;99.90
16827;DHT22;8530;49.540;8.576;2023-02-15T04:36:02;2.20;99.90
16827;DHT22;8530;49.540;8.576;2023-02-15T04:38:29;2.20;99.90
16827;DHT22;8530;49.540;8.576;2023-02-15T04:40:56;2.20;99.90
16827;DHT22;8530;49.540;8.576;2023-02-15T04:43:23;2.20;99.90
16827;DHT22;8530;49.540;8.576;2023-02-15T04:45:50;2.20;99.90
16827;DHT22;8530;49.540;8.576;2023-02-15T04:48:17;2.20;99.90
16827;DHT22;8530;49.540;8.576;2023-02-15T04:50:44;2.20;99.90
16827;DHT22;8530;49.540;8.576;2023-02-15T04:53:12;2.20;99.90
16827;DHT22;8530;49.540;8.576;2023-02-15T04:55:39;2.20;99.90
16827;DHT22;8530;49.540;8.576;2023-02-15T04:58:05;2.20;99.90
16827;DHT22;8530;49.540;8.576;2023-02-15T05:00:32;2.10;99.90
16827;DHT22;8530;49.540;8.576;2023-02-15T05:02:59;2.10;99.90
16827;DHT22;8530;49.540;8.576;2023-02-15T05:05:25;2.10;99.90
16827;DHT22;8530;49.540;8.576;2023-02-15T05:07:52;2.10;99.90
16827;DHT22;8530;49.540;8.576;2023-02-15T05:10:20;2.10;99.90
16827;DHT22;8530;49.540;8.576;2023-02-15T05:12:47;2.10;99.90
16827;DHT22;8530;49.540;8.576;2023-02-15T05:15:14;2.20;99.90
16827;DHT22;8530;49.540;8.576;2023-02-15T05:17:41;2.20;99.90
16827;DHT22;8530;49.540;8.576;2023-02-15T05:20:08;2.20;99.90
16827;DHT22;8530;49.540;8.576;2023-02-15T05:22:35;2.20;99.90
16827;DHT22;8530;49.540;8.576;2023-02-15T05:25:02;2.20;99.90
16827;DHT22;8530;49.540;8.576;2023-02-15T05:27:48;2.20;99.90
16827;DHT22;8530;49.540;8.576;2023-02-15T05:30:32;2.20;99.90
16827;DHT22;8530;49.540;8.576;2023-02-15T05:32:58;2.20;99.90
16827;DHT22;8530;49.540;8.576;2023-02-15T05:35:25;2.20;99.90
16827;DHT22;8530;49.540;8.576;2023-02-15T05:37:52;2.20;99.90
16827;DHT22;8530;49.540;8.576;2023-02-15T05:40:19;2.20;99.90
16827;DHT22;8530;49.540;8.576;2023-02-15T05:42:47;2.20;99.90
16827;DHT22;8530;49.540;8.576;2023-02-15T05:45:14;2.20;99.90
16827;DHT22;8530;49.540;8.576;2023-02-15T05:47:41;2.20;99.90
16827;DHT22;8530;49.540;8.576;2023-02-15T05:50:09;2.20;99.90
16827;DHT22;8530;49.540;8.576;2023-02-15T05:52:36;2.20;99.90
16827;DHT22;8530;49.540;8.576;2023-02-15T05:55:04;2.20;99.90
16827;DHT22;8530;49.540;8.576;2023-02-15T05:57:30;2.20;99.90
16827;DHT22;8530;49.540;8.576;2023-02-15T05:59:59;2.20;99.90
16827;DHT22;8530;49.540;8.576;2023-02-15T06:02:25;2.20;99.90
16827;DHT22;8530;49.540;8.576;2023-02-15T06:04:52;2.20;99.90
16827;DHT22;8530;49.540;8.576;2023-02-15T06:07:19;2.20;99.90
16827;DHT22;8530;49.540;8.576;2023-02-15T06:09:46;2.20;99.90
16827;DHT22;8530;49.540;8.576;2023-02-15T06:12:13;2.20;99.90
16827;DHT22;8530;49.540;8.576;2023-02-15T06:14:40;2.20;99.90
16827;DHT22;8530;49.540;8.576;2023-02-15T06:17:08;2.30;99.90
16827;DHT22;8530;49.540;8.576;2023-02-15T06:19:35;2.30;99.90
16827;DHT22;8530;49.540;8.576;2023-02-15T06:22:02;2.30;99.90
16827;DHT22;8530;49.540;8.576;2023-02-15T06:24:29;2.20;99.90
16827;DHT22;8530;49.540;8.576;2023-02-15T06:26:56;2.30;99.90
16827;DHT22;8530;49.540;8.576;2023-02-15T06:29:23;2.30;99.90
16827;DHT22;8530;49.540;8.576;2023-02-15T06:31:50;2.30;99.90
16827;DHT22;8530;49.540;8.576;2023-02-15T06:34:18;2.30;99.90
16827;DHT22;8530;49.540;8.576;2023-02-15T06:36:44;2.30;99.90
16827;DHT22;8530;49.540;8.576;2023-02-15T06:39:11;2.30;99.90
16827;DHT22;8530;49.540;8.576;2023-02-15T06:41:39;2.20;99.90
16827;DHT22;8530;49.540;8.576;2023-02-15T06:44:06;2.30;99.90
16827;DHT22;8530;49.540;8.576;2023-02-15T06:46:32;2.30;99.90
16827;DHT22;8530;49.540;8.576;2023-02-15T06:48:59;2.30;99.90
16827;DHT22;8530;49.540;8.576;2023-02-15T06:51:28;2.20;99.90
16827;DHT22;8530;49.540;8.576;2023-02-15T06:53:58;2.30;99.90
16827;DHT22;8530;49.540;8.576;2023-02-15T06:56:25;2.30;99.90
16827;DHT22;8530;49.540;8.576;2023-02-15T06:58:53;2.30;99.90
16827;DHT22;8530;49.540;8.576;2023-02-15T07:01:20;2.30;99.90
16827;DHT22;8530;49.540;8.576;2023-02-15T07:03:47;2.30;99.90
16827;DHT22;8530;49.540;8.576;2023-02-15T07:06:13;2.40;99.90
16827;DHT22;8530;49.540;8.576;2023-02-15T07:08:41;2.40;99.90
16827;DHT22;8530;49.540;8.576;2023-02-15T07:11:08;2.50;99.90
16827;DHT22;8530;49.540;8.576;2023-02-15T07:13:53;2.50;99.90
16827;DHT22;8530;49.540;8.576;2023-02-15T07:16:20;2.50;99.90
16827;DHT22;8530;49.540;8.576;2023-02-15T07:18:46;2.60;99.90
16827;DHT22;8530;49.540;8.576;2023-02-15T07:21:13;2.60;99.90
16827;DHT22;8530;49.540;8.576;2023-02-15T07:23:41;2.60;99.90
16827;DHT22;8530;49.540;8.576;2023-02-15T07:26:08;2.70;99.90
16827;DHT22;8530;49.540;8.576;2023-02-15T07:28:35;2.70;99.90
16827;DHT22;8530;49.540;8.576;2023-02-15T07:31:02;2.70;99.90
16827;DHT22;8530;49.540;8.576;2023-02-15T07:33:30;2.80;99.90
16827;DHT22;8530;49.540;8.576;2023-02-15T07:35:58;2.80;99.90
16827;DHT22;8530;49.540;8.576;2023-02-15T07:38:29;2.80;99.90
16827;DHT22;8530;49.540;8.576;2023-02-15T07:40:59;2.90;99.90
16827;DHT22;8530;49.540;8.576;2023-02-15T07:43:26;2.90;99.90
16827;DHT22;8530;49.540;8.576;2023-02-15T07:45:53;2.90;99.90
16827;DHT22;8530;49.540;8.576;2023-02-15T07:48:20;3.00;99.90
16827;DHT22;8530;49.540;8.576;2023-02-15T07:50:47;3.00;99.90
16827;DHT22;8530;49.540;8.576;2023-02-15T07:53:14;3.10;99.90
16827;DHT22;8530;49.540;8.576;2023-02-15T07:55:41;3.10;99.90
16827;DHT22;8530;49.540;8.576;2023-02-15T07:58:09;3.20;99.90
16827;DHT22;8530;49.540;8.576;2023-02-15T08:00:36;3.20;99.90
16827;DHT22;8530;49.540;8.576;2023-02-15T08:03:17;3.30;99.90
16827;DHT22;8530;49.540;8.576;2023-02-15T08:05:45;3.30;99.90
16827;DHT22;8530;49.540;8.576;2023-02-15T08:08:12;3.30;99.90
16827;DHT22;8530;49.540;8.576;2023-02-15T08:10:59;3.40;99.90
16827;DHT22;8530;49.540;8.576;2023-02-15T08:13:45;3.40;99.90
16827;DHT22;8530;49.540;8.576;2023-02-15T08:16:24;3.40;99.90
16827;DHT22;8530;49.540;8.576;2023-02-15T08:18:55;3.40;99.90
16827;DHT22;8530;49.540;8.576;2023-02-15T08:21:23;3.40;99.90
16827;DHT22;8530;49.540;8.576;2023-02-15T08:23:53;3.50;99.90
16827;DHT22;8530;49.540;8.576;2023-02-15T08:26:20;3.50;99.90
16827;DHT22;8530;49.540;8.576;2023-02-15T08:28:50;3.60;99.90
16827;DHT22;8530;49.540;8.576;2023-02-15T08:31:18;3.60;99.90
16827;DHT22;8530;49.540;8.576;2023-02-15T08:33:48;3.60;99.90
16827;DHT22;8530;49.540;8.576;2023-02-15T08:36:18;3.60;99.90
16827;DHT22;8530;49.540;8.576;2023-02-15T08:38:46;3.60;99.90
16827;DHT22;8530;49.540;8.576;2023-02-15T08:41:14;3.60;99.90
16827;DHT22;8530;49.540;8.576;2023-02-15T08:43:43;3.70;99.90
16827;DHT22;8530;49.540;8.576;2023-02-15T08:46:12;3.70;99.90
16827;DHT22;8530;49.540;8.576;2023-02-15T08:48:39;3.80;99.90
16827;DHT22;8530;49.540;8.576;2023-02-15T08:51:08;3.80;99.90
16827;DHT22;8530;49.540;8.576;2023-02-15T08:53:36;3.90;99.90
16827;DHT22;8530;49.540;8.576;2023-02-15T08:56:04;3.90;99.90
16827;DHT22;8530;49.540;8.576;2023-02-15T08:58:30;3.90;99.90
16827;DHT22;8530;49.540;8.576;2023-02-15T09:00:57;4.00;99.90
16827;DHT22;8530;49.540;8.576;2023-02-15T09:03:26;4.00;99.90
16827;DHT22;8530;49.540;8.576;2023-02-15T09:05:57;4.10;99.90
16827;DHT22;8530;49.540;8.576;2023-02-15T09:08:24;4.10;99.90
16827;DHT22;8530;49.540;8.576;2023-02-15T09:10:52;4.10;99.90
16827;DHT22;8530;49.540;8.576;2023-02-15T09:13:19;4.10;99.90
16827;DHT22;8530;49.540;8.576;2023-02-15T09:15:46;4.10;99.90
16827;DHT22;8530;49.540;8.576;2023-02-15T09:18:13;4.10;99.90
16827;DHT22;8530;49.540;8.576;2023-02-15T09:20:44;4.10;99.90
16827;DHT22;8530;49.540;8.576;2023-02-15T09:23:11;4.20;99.90
16827;DHT22;8530;49.540;8.576;2023-02-15T09:25:38;4.20;99.90
16827;DHT22;8530;49.540;8.576;2023-02-15T09:28:05;4.20;99.90
16827;DHT22;8530;49.540;8.576;2023-02-15T09:30:33;4.20;99.90
16827;DHT22;8530;49.540;8.576;2023-02-15T09:33:02;4.30;99.90
16827;DHT22;8530;49.540;8.576;2023-02-15T09:35:32;4.30;99.90
16827;DHT22;8530;49.540;8.576;2023-02-15T09:38:00;4.40;99.90
16827;DHT22;8530;49.540;8.576;2023-02-15T09:40:29;4.40;99.90
16827;DHT22;8530;49.540;8.576;2023-02-15T09:43:12;4.40;99.90
16827;DHT22;8530;49.540;8.576;2023-02-15T09:46:00;4.40;99.90
16827;DHT22;8530;49.540;8.576;2023-02-15T09:48:39;4.50;99.90
16827;DHT22;8530;49.540;8.576;2023-02-15T09:54:14;4.50;99.90
16827;DHT22;8530;49.540;8.576;2023-02-15T09:56:48;4.60;99.90
16827;DHT22;8530;49.540;8.576;2023-02-15T09:59:21;4.60;99.90
16827;DHT22;8530;49.540;8.576;2023-02-15T10:01:58;4.70;99.90
16827;DHT22;8530;49.540;8.576;2023-02-15T10:04:47;4.70;99.90
16827;DHT22;8530;49.540;8.576;2023-02-15T10:07:29;4.70;99.90
16827;DHT22;8530;49.540;8.576;2023-02-15T10:10:09;4.80;99.90
16827;DHT22;8530;49.540;8.576;2023-02-15T10:12:59;4.80;99.90
16827;DHT22;8530;49.540;8.576;2023-02-15T10:15:49;4.90;99.90
16827;DHT22;8530;49.540;8.576;2023-02-15T10:18:36;4.80;99.90
16827;DHT22;8530;49.540;8.576;2023-02-15T10:21:15;4.80;99.90
16827;DHT22;8530;49.540;8.576;2023-02-15T10:24:06;4.80;99.90
16827;DHT22;8530;49.540;8.576;2023-02-15T10:26:43;4.80;99.90
16827;DHT22;8530;49.540;8.576;2023-02-15T10:29:22;4.80;99.90
16827;DHT22;8530;49.540;8.576;2023-02-15T10:32:00;4.80;99.90
16827;DHT22;8530;49.540;8.576;2023-02-15T10:34:34;4.90;99.90
16827;DHT22;8530;49.540;8.576;2023-02-15T10:37:21;4.90;99.90
16827;DHT22;8530;49.540;8.576;2023-02-15T10:40:01;4.90;99.90
16827;DHT22;8530;49.540;8.576;2023-02-15T10:42:41;4.90;99.90
16827;DHT22;8530;49.540;8.576;2023-02-15T10:45:22;4.90;99.90
16827;DHT22;8530;49.540;8.576;2023-02-15T10:48:12;5.00;99.90
16827;DHT22;8530;49.540;8.576;2023-02-15T10:50:47;5.00;99.90
16827;DHT22;8530;49.540;8.576;2023-02-15T10:53:39;5.00;99.90
16827;DHT22;8530;49.540;8.576;2023-02-15T10:56:14;5.10;99.90
16827;DHT22;8530;49.540;8.576;2023-02-15T10:58:55;5.10;99.90
16827;DHT22;8530;49.540;8.576;2023-02-15T11:01:30;5.20;99.90
16827;DHT22;8530;49.540;8.576;2023-02-15T11:07:16;5.30;99.90
16827;DHT22;8530;49.540;8.576;2023-02-15T11:09:48;5.30;99.90
16827;DHT22;8530;49.540;8.576;2023-02-15T11:12:20;5.40;99.90
16827;DHT22;8530;49.540;8.576;2023-02-15T11:14:54;5.60;99.90
16827;DHT22;8530;49.540;8.576;2023-02-15T11:17:30;5.70;99.90
16827;DHT22;8530;49.540;8.576;2023-02-15T11:20:14;5.80;99.90
16827;DHT22;8530;49.540;8.576;2023-02-15T11:22:42;6.00;99.90
16827;DHT22;8530;49.540;8.576;2023-02-15T11:25:17;6.10;99.90
16827;DHT22;8530;49.540;8.576;2023-02-15T11:27:45;6.20;99.90
16827;DHT22;8530;49.540;8.576;2023-02-15T11:30:18;6.30;99.90
16827;DHT22;8530;49.540;8.576;2023-02-15T11:32:51;6.30;99.90
16827;DHT22;8530;49.540;8.576;2023-02-15T11:35:25;6.40;99.90
16827;DHT22;8530;49.540;8.576;2023-02-15T11:37:57;6.50;99.90
16827;DHT22;8530;49.540;8.576;2023-02-15T11:40:27;6.50;99.90
16827;DHT22;8530;49.540;8.576;2023-02-15T11:42:58;6.60;99.90
16827;DHT22;8530;49.540;8.576;2023-02-15T11:45:30;6.60;99.90
16827;DHT22;8530;49.540;8.576;2023-02-15T11:48:08;6.60;99.90
16827;DHT22;8530;49.540;8.576;2023-02-15T11:50:38;6.50;99.90
16827;DHT22;8530;49.540;8.576;2023-02-15T11:53:09;6.50;99.90
16827;DHT22;8530;49.540;8.576;2023-02-15T11:55:37;6.50;99.90
16827;DHT22;8530;49.540;8.576;2023-02-15T11:58:10;6.50;99.90
16827;DHT22;8530;49.540;8.576;2023-02-15T12:00:44;6.60;99.90
16827;DHT22;8530;49.540;8.576;2023-02-15T12:03:15;6.60;99.90
16827;DHT22;8530;49.540;8.576;2023-02-15T12:05:45;6.60;99.90
16827;DHT22;8530;49.540;8.576;2023-02-15T12:08:17;6.60;99.90
16827;DHT22;8530;49.540;8.576;2023-02-15T12:10:57;6.60;99.90
16827;DHT22;8530;49.540;8.576;2023-02-15T12:13:25;6.50;99.90
16827;DHT22;8530;49.540;8.576;2023-02-15T12:15:55;6.30;99.90
16827;DHT22;8530;49.540;8.576;2023-02-15T12:18:37;6.20;99.90
16827;DHT22;8530;49.540;8.576;2023-02-15T12:21:07;6.10;99.90
16827;DHT22;8530;49.540;8.576;2023-02-15T12:23:42;6.10;99.90
16827;DHT22;8530;49.540;8.576;2023-02-15T12:26:14;6.20;99.90
16827;DHT22;8530;49.540;8.576;2023-02-15T12:28:50;6.30;99.90
16827;DHT22;8530;49.540;8.576;2023-02-15T12:31:26;6.40;99.90
16827;DHT22;8530;49.540;8.576;2023-02-15T12:33:57;6.40;99.90
16827;DHT22;8530;49.540;8.576;2023-02-15T12:36:25;6.40;99.90
16827;DHT22;8530;49.540;8.576;2023-02-15T12:39:21;6.30;99.90
16827;DHT22;8530;49.540;8.576;2023-02-15T12:42:03;6.30;99.90
16827;DHT22;8530;49.540;8.576;2023-02-15T12:44:35;6.30;99.90
16827;DHT22;8530;49.540;8.576;2023-02-15T12:47:05;6.30;99.90
16827;DHT22;8530;49.540;8.576;2023-02-15T12:49:35;6.30;99.90
16827;DHT22;8530;49.540;8.576;2023-02-15T12:52:04;6.30;99.90
16827;DHT22;8530;49.540;8.576;2023-02-15T12:54:36;6.40;99.90
16827;DHT22;8530;49.540;8.576;2023-02-15T12:57:30;6.40;99.90
16827;DHT22;8530;49.540;8.576;2023-02-15T12:59:59;6.50;99.90
16827;DHT22;8530;49.540;8.576;2023-02-15T13:02:36;6.60;99.90
16827;DHT22;8530;49.540;8.576;2023-02-15T13:05:26;6.60;99.90
16827;DHT22;8530;49.540;8.576;2023-02-15T13:07:56;6.70;99.90
16827;DHT22;8530;49.540;8.576;2023-02-15T13:10:26;6.80;99.90
16827;DHT22;8530;49.540;8.576;2023-02-15T13:12:54;6.90;99.90
16827;DHT22;8530;49.540;8.576;2023-02-15T13:15:26;7.00;99.90
16827;DHT22;8530;49.540;8.576;2023-02-15T13:17:55;7.00;99.90
16827;DHT22;8530;49.540;8.576;2023-02-15T13:20:22;7.10;99.80
16827;DHT22;8530;49.540;8.576;2023-02-15T13:22:55;7.00;99.70
16827;DHT22;8530;49.540;8.576;2023-02-15T13:25:27;7.10;99.80
16827;DHT22;8530;49.540;8.576;2023-02-15T13:27:57;7.10;99.70
16827;DHT22;8530;49.540;8.576;2023-02-15T13:30:30;7.10;99.50
16827;DHT22;8530;49.540;8.576;2023-02-15T13:33:03;7.10;99.70
16827;DHT22;8530;49.540;8.576;2023-02-15T13:35:38;7.10;99.40
16827;DHT22;8530;49.540;8.576;2023-02-15T13:38:19;7.10;99.20
16827;DHT22;8530;49.540;8.576;2023-02-15T13:40:52;7.00;99.00
16827;DHT22;8530;49.540;8.576;2023-02-15T13:43:32;7.00;99.00
16827;DHT22;8530;49.540;8.576;2023-02-15T13:46:11;6.90;98.90
16827;DHT22;8530;49.540;8.576;2023-02-15T13:48:51;7.00;99.00
16827;DHT22;8530;49.540;8.576;2023-02-15T13:51:21;7.00;98.90
16827;DHT22;8530;49.540;8.576;2023-02-15T13:54:07;7.00;98.70
16827;DHT22;8530;49.540;8.576;2023-02-15T13:56:44;7.00;98.70
16827;DHT22;8530;49.540;8.576;2023-02-15T13:59:44;7.00;98.30
16827;DHT22;8530;49.540;8.576;2023-02-15T14:02:33;6.90;98.00
16827;DHT22;8530;49.540;8.576;2023-02-15T14:05:28;6.80;98.20
16827;DHT22;8530;49.540;8.576;2023-02-15T14:08:02;6.80;98.20
16827;DHT22;8530;49.540;8.576;2023-02-15T14:10:42;6.90;98.30
16827;DHT22;8530;49.540;8.576;2023-02-15T14:13:35;7.00;98.40
16827;DHT22;8530;49.540;8.576;2023-02-15T14:16:11;7.00;98.10
16827;DHT22;8530;49.540;8.576;2023-02-15T14:18:44;7.00;98.20
16827;DHT22;8530;49.540;8.576;2023-02-15T14:21:18;7.10;98.20
16827;DHT22;8530;49.540;8.576;2023-02-15T14:23:59;7.20;98.20
16827;DHT22;8530;49.540;8.576;2023-02-15T14:26:36;7.30;98.10
16827;DHT22;8530;49.540;8.576;2023-02-15T14:29:16;7.40;98.10
16827;DHT22;8530;49.540;8.576;2023-02-15T14:31:48;7.40;97.90
16827;DHT22;8530;49.540;8.576;2023-02-15T14:34:20;7.30;97.60
16827;DHT22;8530;49.540;8.576;2023-02-15T14:36:50;7.30;97.60
16827;DHT22;8530;49.540;8.576;2023-02-15T14:39:26;7.40;97.60
16827;DHT22;8530;49.540;8.576;2023-02-15T14:42:18;7.40;97.50
16827;DHT22;8530;49.540;8.576;2023-02-15T14:44:49;7.40;97.40
16827;DHT22;8530;49.540;8.576;2023-02-15T14:47:24;7.40;97.40
16827;DHT22;8530;49.540;8.576;2023-02-15T14:49:53;7.40;97.30
16827;DHT22;8530;49.540;8.576;2023-02-15T14:52:21;7.40;97.20
16827;DHT22;8530;49.540;8.576;2023-02-15T14:54:58;7.40;97.20
16827;DHT22;8530;49.540;8.576;2023-02-15T14:57:31;7.40;96.90
16827;DHT22;8530;49.540;8.576;2023-02-15T15:00:00;7.40;96.90
16827;DHT22;8530;49.540;8.576;2023-02-15T15:02:42;7.40;96.70
16827;DHT22;8530;49.540;8.576;2023-02-15T15:05:11;7.40;96.50
16827;DHT22;8530;49.540;8.576;2023-02-15T15:07:45;7.30;96.30
16827;DHT22;8530;49.540;8.576;2023-02-15T15:13:54;7.00;96.20
16827;DHT22;8530;49.540;8.576;2023-02-15T15:19:10;6.80;96.20
16827;DHT22;8530;49.540;8.576;2023-02-15T15:21:56;6.70;96.30
16827;DHT22;8530;49.540;8.576;2023-02-15T15:24:51;6.60;96.20
16827;DHT22;8530;49.540;8.576;2023-02-15T15:27:50;6.50;96.20
16827;DHT22;8530;49.540;8.576;2023-02-15T15:37:30;6.20;96.40
16827;DHT22;8530;49.540;8.576;2023-02-15T15:40:42;6.10;96.40
16827;DHT22;8530;49.540;8.576;2023-02-15T15:43:31;5.90;96.50
16827;DHT22;8530;49.540;8.576;2023-02-15T15:46:24;5.80;96.60
16827;DHT22;8530;49.540;8.576;2023-02-15T15:49:01;5.60;96.60
16827;DHT22;8530;49.540;8.576;2023-02-15T15:51:31;5.50;96.70
16827;DHT22;8530;49.540;8.576;2023-02-15T15:53:59;5.50;96.80
16827;DHT22;8530;49.540;8.576;2023-02-15T15:56:31;5.30;96.80
16827;DHT22;8530;49.540;8.576;2023-02-15T15:59:00;5.30;96.90
16827;DHT22;8530;49.540;8.576;2023-02-15T16:01:29;5.10;97.00
16827;DHT22;8530;49.540;8.576;2023-02-15T16:03:57;5.10;97.10
16827;DHT22;8530;49.540;8.576;2023-02-15T16:06:33;4.90;97.20
16827;DHT22;8530;49.540;8.576;2023-02-15T16:09:11;4.80;97.30
16827;DHT22;8530;49.540;8.576;2023-02-15T16:11:39;4.70;97.40
16827;DHT22;8530;49.540;8.576;2023-02-15T16:14:12;4.60;97.40
16827;DHT22;8530;49.540;8.576;2023-02-15T16:16:40;4.50;97.50
16827;DHT22;8530;49.540;8.576;2023-02-15T16:19:21;4.40;97.60
16827;DHT22;8530;49.540;8.576;2023-02-15T16:21:49;4.30;97.70
16827;DHT22;8530;49.540;8.576;2023-02-15T16:24:25;4.20;97.70
16827;DHT22;8530;49.540;8.576;2023-02-15T16:27:34;4.10;97.80
16827;DHT22;8530;49.540;8.576;2023-02-15T16:30:22;4.00;98.00
16827;DHT22;8530;49.540;8.576;2023-02-15T16:32:52;3.90;98.00
16827;DHT22;8530;49.540;8.576;2023-02-15T16:35:21;3.80;98.00
16827;DHT22;8530;49.540;8.576;2023-02-15T16:37:48;3.70;98.10
16827;DHT22;8530;49.540;8.576;2023-02-15T16:40:35;3.70;98.20
16827;DHT22;8530;49.540;8.576;2023-02-15T16:43:10;3.50;98.30
16827;DHT22;8530;49.540;8.576;2023-02-15T16:45:38;3.40;98.30
16827;DHT22;8530;49.540;8.576;2023-02-15T16:48:07;3.40;98.40
16827;DHT22;8530;49.540;8.576;2023-02-15T16:50:37;3.30;98.50
16827;DHT22;8530;49.540;8.576;2023-02-15T16:53:07;3.20;98.60
16827;DHT22;8530;49.540;8.576;2023-02-15T16:55:41;3.10;98.60
16827;DHT22;8530;49.540;8.576;2023-02-15T16:58:15;3.00;98.70
16827;DHT22;8530;49.540;8.576;2023-02-15T17:00:42;3.00;98.80